TAF and METAR

Decoding for American and Canadian METARs and TAFs is not fully implemented.

Could not understand the following METAR

KOTG 191456Z AUTO 21014KT 10SM CLR 02/M03 A3021 RMK AO2 SLP249 T00221028 55002 FZRANO
No TAF available for Worthington Municipal Airport
Worthington Municipal Airport in United States of America at 480m

Latest 5 airports